Valle Azzurra — ICEG — position and weather

sailwx.info

Track history (hours):
 
Tides and Currents Weather Stations Pressure Air Temp Water Temp Dewpoint Dewpoint Depression Visibility Wind Speed Wind Dir Waves Ship Positions

Valle Azzurra

Last reported at 2015-Apr-20 08:13 UTC. Time now 2015-Apr-21 13:08 UTC.
Position N 29°12' W 094°38'.

Length 183 m; draft 9 m.

Type: Tanker. MMSI: 247226600.

Date/timePositionNaut miles runAvg speedWind from/ knotsBaromVisibWave heightAir tempDewpointWater temp
2015-Apr-20 08:13N 29°12' W 094°38'0 0.0
2015-Apr-20 07:25N 29°12' W 094°38'0 0.0
2015-Apr-20 06:14N 29°12' W 094°38'0 0.0
2015-Apr-20 05:28N 29°12' W 094°38'0 0.0
2015-Apr-20 04:31N 29°12' W 094°38'0 0.0
2015-Apr-19 13:04N 29°12' W 094°38'0 0.0
2015-Apr-19 12:31N 29°12' W 094°38'0 0.0
2015-Apr-19 03:25N 29°12' W 094°38'9 4.4
2015-Apr-19 01:24N 29°21' W 094°42'1011.0
2015-Apr-19 00:31N 29°27' W 094°50'1111.3
2015-Apr-18 23:33N 29°36' W 094°57'9 9.2
2015-Apr-18 22:33N 29°44' W 095°02'6 6.1
2015-Apr-18 21:33N 29°44' W 095°09'4 4.4
2015-Apr-18 20:33N 29°43' W 095°14'0 0.0
2015-Apr-18 19:32N 29°43' W 095°14'0 0.0
2015-Apr-18 18:29N 29°43' W 095°14'0 0.0
2015-Apr-18 17:32N 29°43' W 095°14'0 0.0
2015-Apr-18 16:32N 29°43' W 095°14'0 0.0
2015-Apr-18 15:32N 29°43' W 095°14'0 0.0
2015-Apr-18 14:32N 29°43' W 095°14'0 0.0
2015-Apr-18 13:32N 29°43' W 095°14'0 0.0
2015-Apr-18 12:32N 29°43' W 095°14'0 0.0
2015-Apr-18 11:32N 29°43' W 095°14'0 0.0
2015-Apr-18 10:32N 29°43' W 095°14'0 0.0
2015-Apr-18 09:32N 29°43' W 095°14'0 0.0
2015-Apr-18 08:32N 29°43' W 095°14'0 0.0
2015-Apr-18 07:32N 29°43' W 095°14'0 0.0
2015-Apr-18 06:32N 29°43' W 095°14'0 0.0
2015-Apr-18 05:32N 29°43' W 095°14'0 0.0
2015-Apr-18 04:32N 29°43' W 095°14'0 0.0
2015-Apr-18 03:32N 29°43' W 095°14'0 0.0
2015-Apr-18 02:32N 29°43' W 095°14'0 0.0
2015-Apr-18 01:23N 29°43' W 095°14'0 0.0
2015-Apr-18 00:32N 29°43' W 095°14'0 0.0
2015-Apr-17 23:32N 29°43' W 095°14'0 0.0
2015-Apr-17 22:32N 29°43' W 095°14'0 0.0
2015-Apr-17 21:32N 29°43' W 095°14'0 0.0
2015-Apr-17 20:32N 29°43' W 095°14'0 0.0
2015-Apr-17 19:32N 29°43' W 095°14'0 0.0
2015-Apr-17 18:32N 29°43' W 095°14'0 0.0
2015-Apr-17 17:32N 29°43' W 095°14'0 0.0
2015-Apr-17 16:32N 29°43' W 095°14'0 0.0
2015-Apr-17 15:32N 29°43' W 095°14'0 0.0
2015-Apr-17 14:29N 29°43' W 095°14'0 0.0
2015-Apr-17 13:32N 29°43' W 095°14'0 0.0
2015-Apr-16 23:33N 29°43' W 095°14'5 5.0
2015-Apr-16 22:33N 29°44' W 095°08'6 6.3
2015-Apr-16 21:33N 29°43' W 095°01'1010.3
2015-Apr-16 20:34N 29°34' W 094°56'1312.7
2015-Apr-16 19:33N 29°23' W 094°49'4 1.9
2015-Apr-16 17:11N 29°21' W 094°44'0 0.0
2015-Apr-16 13:27N 29°21' W 094°44'0 0.1
2015-Apr-16 11:32N 29°21' W 094°44'0 0.0
2015-Apr-16 10:14N 29°21' W 094°44'0 0.0
2015-Apr-16 09:23N 29°21' W 094°44'0 0.0
2015-Apr-16 08:23N 29°21' W 094°44'0 0.0
2015-Apr-16 07:05N 29°21' W 094°44'0 0.1
2015-Apr-16 04:14N 29°21' W 094°44'0 0.0
2015-Apr-16 03:32N 29°21' W 094°44'0 0.1
2015-Apr-16 02:08N 29°21' W 094°44'0 0.1
2015-Apr-16 01:23N 29°21' W 094°44'0 0.0
2015-Apr-16 00:23N 29°21' W 094°44'0 0.0
2015-Apr-15 23:23N 29°21' W 094°44'0 0.0
2015-Apr-15 18:23N 29°21' W 094°44'0 0.1
2015-Apr-15 17:20N 29°21' W 094°44'0 0.1
2015-Apr-15 16:08N 29°21' W 094°44'0 0.0
2015-Apr-15 15:05N 29°21' W 094°44'0 0.0
2015-Apr-15 14:17N 29°21' W 094°44'0 0.0
2015-Apr-15 13:20N 29°21' W 094°44'0 0.0
2015-Apr-15 10:32N 29°21' W 094°44'0 0.0
2015-Apr-15 08:20N 29°21' W 094°44'0 0.0
2015-Apr-15 07:20N 29°21' W 094°44'0 0.0
2015-Apr-15 02:19N 29°21' W 094°44'3 3.9
2015-Apr-15 01:31N 29°20' W 094°41'  
Track history (hours):
 
Tides and Currents Weather Stations Pressure Air Temp Water Temp Dewpoint Dewpoint Depression Visibility Wind Speed Wind Dir Waves Ship Positions

Valle Azzurra

Last reported at 2015-Apr-20 08:13 UTC. Time now 2015-Apr-21 13:08 UTC.
Position N 29°12' W 094°38'.

Length 183 m; draft 9 m.

Type: Tanker. MMSI: 247226600.

Date/timePositionNaut miles runAvg speedWind from/ knotsBaromVisibWave heightAir tempDewpointWater temp
2015-Apr-20 08:13N 29°12' W 094°38'0 0.0
2015-Apr-20 07:25N 29°12' W 094°38'0 0.0
2015-Apr-20 06:14N 29°12' W 094°38'0 0.0
2015-Apr-20 05:28N 29°12' W 094°38'0 0.0
2015-Apr-20 04:31N 29°12' W 094°38'0 0.0
2015-Apr-19 13:04N 29°12' W 094°38'0 0.0
2015-Apr-19 12:31N 29°12' W 094°38'0 0.0
2015-Apr-19 03:25N 29°12' W 094°38'9 4.4
2015-Apr-19 01:24N 29°21' W 094°42'1011.0
2015-Apr-19 00:31N 29°27' W 094°50'1111.3
2015-Apr-18 23:33N 29°36' W 094°57'9 9.2
2015-Apr-18 22:33N 29°44' W 095°02'6 6.1
2015-Apr-18 21:33N 29°44' W 095°09'4 4.4
2015-Apr-18 20:33N 29°43' W 095°14'0 0.0
2015-Apr-18 19:32N 29°43' W 095°14'0 0.0
2015-Apr-18 18:29N 29°43' W 095°14'0 0.0
2015-Apr-18 17:32N 29°43' W 095°14'0 0.0
2015-Apr-18 16:32N 29°43' W 095°14'0 0.0
2015-Apr-18 15:32N 29°43' W 095°14'0 0.0
2015-Apr-18 14:32N 29°43' W 095°14'0 0.0
2015-Apr-18 13:32N 29°43' W 095°14'0 0.0
2015-Apr-18 12:32N 29°43' W 095°14'0 0.0
2015-Apr-18 11:32N 29°43' W 095°14'0 0.0
2015-Apr-18 10:32N 29°43' W 095°14'0 0.0
2015-Apr-18 09:32N 29°43' W 095°14'0 0.0
2015-Apr-18 08:32N 29°43' W 095°14'0 0.0
2015-Apr-18 07:32N 29°43' W 095°14'0 0.0
2015-Apr-18 06:32N 29°43' W 095°14'0 0.0
2015-Apr-18 05:32N 29°43' W 095°14'0 0.0
2015-Apr-18 04:32N 29°43' W 095°14'0 0.0
2015-Apr-18 03:32N 29°43' W 095°14'0 0.0
2015-Apr-18 02:32N 29°43' W 095°14'0 0.0
2015-Apr-18 01:23N 29°43' W 095°14'0 0.0
2015-Apr-18 00:32N 29°43' W 095°14'0 0.0
2015-Apr-17 23:32N 29°43' W 095°14'0 0.0
2015-Apr-17 22:32N 29°43' W 095°14'0 0.0
2015-Apr-17 21:32N 29°43' W 095°14'0 0.0
2015-Apr-17 20:32N 29°43' W 095°14'0 0.0
2015-Apr-17 19:32N 29°43' W 095°14'0 0.0
2015-Apr-17 18:32N 29°43' W 095°14'0 0.0
2015-Apr-17 17:32N 29°43' W 095°14'0 0.0
2015-Apr-17 16:32N 29°43' W 095°14'0 0.0
2015-Apr-17 15:32N 29°43' W 095°14'0 0.0
2015-Apr-17 14:29N 29°43' W 095°14'0 0.0
2015-Apr-17 13:32N 29°43' W 095°14'0 0.0
2015-Apr-16 23:33N 29°43' W 095°14'5 5.0
2015-Apr-16 22:33N 29°44' W 095°08'6 6.3
2015-Apr-16 21:33N 29°43' W 095°01'1010.3
2015-Apr-16 20:34N 29°34' W 094°56'1312.7
2015-Apr-16 19:33N 29°23' W 094°49'4 1.9
2015-Apr-16 17:11N 29°21' W 094°44'0 0.0
2015-Apr-16 13:27N 29°21' W 094°44'0 0.1
2015-Apr-16 11:32N 29°21' W 094°44'0 0.0
2015-Apr-16 10:14N 29°21' W 094°44'0 0.0
2015-Apr-16 09:23N 29°21' W 094°44'0 0.0
2015-Apr-16 08:23N 29°21' W 094°44'0 0.0
2015-Apr-16 07:05N 29°21' W 094°44'0 0.1
2015-Apr-16 04:14N 29°21' W 094°44'0 0.0
2015-Apr-16 03:32N 29°21' W 094°44'0 0.1
2015-Apr-16 02:08N 29°21' W 094°44'0 0.1
2015-Apr-16 01:23N 29°21' W 094°44'0 0.0
2015-Apr-16 00:23N 29°21' W 094°44'0 0.0
2015-Apr-15 23:23N 29°21' W 094°44'0 0.0
2015-Apr-15 18:23N 29°21' W 094°44'0 0.1
2015-Apr-15 17:20N 29°21' W 094°44'0 0.1
2015-Apr-15 16:08N 29°21' W 094°44'0 0.0
2015-Apr-15 15:05N 29°21' W 094°44'0 0.0
2015-Apr-15 14:17N 29°21' W 094°44'0 0.0
2015-Apr-15 13:20N 29°21' W 094°44'0 0.0
2015-Apr-15 10:32N 29°21' W 094°44'0 0.0
2015-Apr-15 08:20N 29°21' W 094°44'0 0.0
2015-Apr-15 07:20N 29°21' W 094°44'0 0.0
2015-Apr-15 02:19N 29°21' W 094°44'3 3.9
2015-Apr-15 01:31N 29°20' W 094°41'  

Dump ship's entire track history